createdAt,value
2023-09-02T00:01:48.632Z,99173.31
2023-09-02T00:04:17.216Z,99168.90
2023-09-02T00:06:45.189Z,99168.32
2023-09-02T00:09:13.960Z,99163.30
2023-09-02T00:11:41.907Z,99165.95
2023-09-02T00:14:09.898Z,99169.30
2023-09-02T00:16:37.878Z,99169.29
2023-09-02T00:19:05.937Z,99168.95
2023-09-02T00:21:34.380Z,99167.17
2023-09-02T00:24:04.277Z,99168.42
2023-09-02T00:26:33.248Z,99169.16
2023-09-02T00:29:02.420Z,99168.98
2023-09-02T00:31:30.884Z,99166.14
2023-09-02T00:33:58.992Z,99168.73
2023-09-02T00:36:29.209Z,99166.18
2023-09-02T00:39:00.674Z,99169.77
2023-09-02T00:41:48.288Z,99171.95
2023-09-02T00:44:16.447Z,99174.32
2023-09-02T00:46:46.428Z,99177.74
2023-09-02T00:49:15.405Z,99172.54
2023-09-02T00:51:43.482Z,99168.98
2023-09-02T00:54:11.508Z,99167.80
2023-09-02T00:56:39.549Z,99166.54
2023-09-02T00:59:08.048Z,99170.81
2023-09-02T01:01:37.607Z,99171.34
2023-09-02T01:04:06.388Z,99175.55
2023-09-02T01:06:38.539Z,99181.16
2023-09-02T01:09:08.176Z,99181.96
2023-09-02T01:11:36.390Z,99185.61
2023-09-02T01:14:04.572Z,99187.81
2023-09-02T01:16:33.722Z,99188.88
2023-09-02T01:19:01.862Z,99187.23
2023-09-02T01:21:46.820Z,99185.42
2023-09-02T01:24:28.443Z,99182.92
2023-09-02T01:27:12.875Z,99181.51
2023-09-02T01:29:48.984Z,99180.96
2023-09-02T01:32:19.942Z,99185.38
2023-09-02T01:34:48.499Z,99189.03
2023-09-02T01:37:18.615Z,99193.14
2023-09-02T01:39:48.539Z,99198.48
2023-09-02T01:42:17.927Z,99199.94
2023-09-02T01:44:47.023Z,99198.85
2023-09-02T01:47:17.198Z,99201.66
2023-09-02T01:49:48.625Z,99203.16
2023-09-02T01:52:17.144Z,99198.06
2023-09-02T01:54:46.087Z,99204.46
2023-09-02T01:57:14.632Z,99203.66
2023-09-02T01:59:43.180Z,99197.71
2023-09-02T02:02:11.298Z,99198.33
2023-09-02T02:04:43.494Z,99199.78
2023-09-02T02:07:15.169Z,99200.36
2023-09-02T02:09:54.963Z,99203.77
2023-09-02T02:12:23.928Z,99202.41
2023-09-02T02:14:51.909Z,99203.59
2023-09-02T02:17:19.909Z,99202.98
2023-09-02T02:19:48.279Z,99206.98
2023-09-02T02:22:16.304Z,99209.44
2023-09-02T02:24:44.253Z,99208.20
2023-09-02T02:27:12.273Z,99212.25
2023-09-02T02:29:40.582Z,99214.36
2023-09-02T02:32:08.623Z,99212.79
2023-09-02T02:34:36.728Z,99214.38
2023-09-02T02:37:05.707Z,99215.25
2023-09-02T02:39:34.221Z,99216.65
2023-09-02T02:42:02.239Z,99224.42
2023-09-02T02:44:30.314Z,99225.36
2023-09-02T02:46:58.333Z,99224.75
2023-09-02T02:49:26.456Z,99229.09
2023-09-02T02:51:57.266Z,99229.17
2023-09-02T02:54:25.780Z,99234.42
2023-09-02T02:56:53.814Z,99236.15
2023-09-02T02:59:21.842Z,99236.23
2023-09-02T03:01:51.944Z,99234.10
2023-09-02T03:04:20.007Z,99235.70
2023-09-02T03:06:48.788Z,99234.64
2023-09-02T03:09:17.140Z,99239.71
2023-09-02T03:11:45.636Z,99238.33
2023-09-02T03:14:13.980Z,99238.89
2023-09-02T03:16:42.741Z,99236.98
2023-09-02T03:19:11.772Z,99236.08
2023-09-02T03:21:39.743Z,99235.69
2023-09-02T03:24:09.466Z,99236.86
2023-09-02T03:26:37.635Z,99232.41
2023-09-02T03:29:05.698Z,99229.55
2023-09-02T03:31:35.241Z,99232.84
2023-09-02T03:34:04.570Z,99241.38
2023-09-02T03:36:33.089Z,99245.86
2023-09-02T03:39:01.077Z,99246.20
2023-09-02T03:41:29.508Z,99247.11
2023-09-02T03:43:58.836Z,99249.28
2023-09-02T03:46:27.223Z,99249.98
2023-09-02T03:48:55.437Z,99255.66
2023-09-02T03:51:24.090Z,99259.42
2023-09-02T03:53:57.114Z,99258.34
2023-09-02T03:56:26.223Z,99261.96
2023-09-02T03:58:55.908Z,99266.60
2023-09-02T04:01:24.375Z,99269.38
2023-09-02T04:03:52.772Z,99273.59
2023-09-02T04:06:20.759Z,99274.57
2023-09-02T04:08:48.786Z,99278.72
2023-09-02T04:11:16.818Z,99279.98
2023-09-02T04:13:45.098Z,99282.41
2023-09-02T04:16:15.010Z,99287.17
2023-09-02T04:18:44.853Z,99290.40
2023-09-02T04:21:13.673Z,99292.33
2023-09-02T04:23:44.269Z,99293.84
2023-09-02T04:26:16.078Z,99296.52
2023-09-02T04:28:44.327Z,99299.63
2023-09-02T04:31:14.726Z,99303.80
2023-09-02T04:33:43.399Z,99299.36
2023-09-02T04:36:11.688Z,99307.04
2023-09-02T04:38:42.147Z,99312.16
2023-09-02T04:41:10.820Z,99312.27
2023-09-02T04:43:39.634Z,99309.20
2023-09-02T04:46:13.329Z,99313.50
2023-09-02T04:48:43.796Z,99311.23
2023-09-02T04:51:14.410Z,99309.27
2023-09-02T04:53:42.802Z,99313.64
2023-09-02T04:56:11.251Z,99314.71
2023-09-02T04:58:40.905Z,99316.92
2023-09-02T05:01:13.380Z,99315.19
2023-09-02T05:03:45.163Z,99317.34
2023-09-02T05:06:14.259Z,99315.60
2023-09-02T05:08:45.716Z,99317.45
2023-09-02T05:11:15.533Z,99323.33
2023-09-02T05:13:43.716Z,99325.54
2023-09-02T05:16:12.698Z,99326.48
2023-09-02T05:18:40.839Z,99325.31
2023-09-02T05:21:08.871Z,99324.88
2023-09-02T05:23:36.857Z,99328.43
2023-09-02T05:26:06.186Z,99333.39
2023-09-02T05:28:34.858Z,99336.48
2023-09-02T05:31:04.345Z,99341.23
2023-09-02T05:33:32.431Z,99339.45
2023-09-02T05:36:00.449Z,99340.06
2023-09-02T05:38:28.530Z,99344.02
2023-09-02T05:40:56.525Z,99348.71
2023-09-02T05:43:26.096Z,99352.39
2023-09-02T05:45:54.760Z,99347.67
2023-09-02T05:48:22.733Z,99350.55
2023-09-02T05:50:50.862Z,99356.50
2023-09-02T05:53:19.389Z,99354.83
2023-09-02T05:55:55.614Z,99361.26
2023-09-02T05:58:25.314Z,99362.26
2023-09-02T06:00:53.634Z,99362.91
2023-09-02T06:03:22.316Z,99362.14
2023-09-02T06:05:50.803Z,99368.42
2023-09-02T06:08:19.761Z,99371.98
2023-09-02T06:11:01.099Z,99374.08
2023-09-02T06:13:29.159Z,99376.09
2023-09-02T06:16:05.209Z,99379.64
2023-09-02T06:18:35.180Z,99380.38
2023-09-02T06:21:14.415Z,99380.98
2023-09-02T06:23:44.602Z,99382.19
2023-09-02T06:26:13.333Z,99379.54
2023-09-02T06:28:41.612Z,99378.11
2023-09-02T06:31:10.404Z,99377.91
2023-09-02T06:33:38.642Z,99379.64
2023-09-02T06:36:11.600Z,99381.69
2023-09-02T06:38:40.253Z,99383.64
2023-09-02T06:41:12.816Z,99384.20
2023-09-02T06:43:41.085Z,99382.54
2023-09-02T06:46:21.026Z,99384.83
2023-09-02T06:48:49.271Z,99387.91
2023-09-02T06:51:17.654Z,99383.21
2023-09-02T06:53:45.965Z,99383.34
2023-09-02T06:56:14.513Z,99388.56
2023-09-02T06:58:44.338Z,99392.73
2023-09-02T07:01:27.555Z,99393.75
2023-09-02T07:03:57.842Z,99390.51
2023-09-02T07:06:26.023Z,99396.09
2023-09-02T07:08:54.164Z,99401.67
2023-09-02T07:11:22.206Z,99405.98
2023-09-02T07:13:52.234Z,99407.23
2023-09-02T07:16:21.146Z,99409.25
2023-09-02T07:18:49.308Z,99411.44
2023-09-02T07:21:22.869Z,99410.58
2023-09-02T07:23:53.837Z,99413.84
2023-09-02T07:26:23.349Z,99416.16
2023-09-02T07:28:51.332Z,99418.15
2023-09-02T07:31:19.358Z,99419.73
2023-09-02T07:33:47.462Z,99421.41
2023-09-02T07:36:15.676Z,99423.00
2023-09-02T07:38:45.568Z,99424.33
2023-09-02T07:41:13.673Z,99420.86
2023-09-02T07:43:41.881Z,99422.56
2023-09-02T07:46:12.161Z,99420.80
2023-09-02T07:48:40.197Z,99424.55
2023-09-02T07:51:08.132Z,99428.38
2023-09-02T07:53:36.105Z,99429.80
2023-09-02T07:56:04.302Z,99428.24
2023-09-02T07:58:32.356Z,99430.71
2023-09-02T08:01:00.417Z,99430.45
2023-09-02T08:03:28.541Z,99429.45
2023-09-02T08:05:57.256Z,99432.00
2023-09-02T08:08:25.239Z,99435.22
2023-09-02T08:11:04.735Z,99437.96
2023-09-02T08:13:34.808Z,99444.94
2023-09-02T08:16:06.543Z,99453.50
2023-09-02T08:18:35.555Z,99451.41
2023-09-02T08:21:11.278Z,99458.30
2023-09-02T08:23:39.973Z,99464.64
2023-09-02T08:26:15.444Z,99462.23
2023-09-02T08:28:43.921Z,99460.88
2023-09-02T08:31:16.823Z,99462.05
2023-09-02T08:33:44.901Z,99467.16
2023-09-02T08:36:19.100Z,99470.69
2023-09-02T08:38:48.024Z,99476.02
2023-09-02T08:41:28.076Z,99478.70
2023-09-02T08:43:57.323Z,99479.50
2023-09-02T08:46:28.568Z,99479.29
2023-09-02T08:48:57.849Z,99481.56
2023-09-02T08:51:27.407Z,99485.10
2023-09-02T08:53:57.577Z,99484.97
2023-09-02T08:56:26.703Z,99484.52
2023-09-02T08:58:55.453Z,99489.27
2023-09-02T09:01:24.778Z,99489.20
2023-09-02T09:03:56.698Z,99486.79
2023-09-02T09:06:26.246Z,99492.05
2023-09-02T09:08:56.530Z,99496.47
2023-09-02T09:11:28.425Z,99497.71
2023-09-02T09:13:59.479Z,99499.39
2023-09-02T09:16:35.459Z,99502.16
2023-09-02T09:19:04.605Z,99502.62
2023-09-02T09:21:32.788Z,99502.46
2023-09-02T09:24:00.794Z,99502.02
2023-09-02T09:26:29.956Z,99506.13
2023-09-02T09:29:01.125Z,99503.98
2023-09-02T09:31:29.379Z,99509.02
2023-09-02T09:34:00.341Z,99513.60
2023-09-02T09:36:30.602Z,99513.42
2023-09-02T09:39:09.827Z,99511.42
2023-09-02T09:41:46.412Z,99510.89
2023-09-02T09:44:15.881Z,99515.14
2023-09-02T09:46:43.847Z,99520.38
2023-09-02T09:49:24.512Z,99519.52
2023-09-02T09:52:09.444Z,99516.52
2023-09-02T09:54:42.400Z,99516.09
2023-09-02T09:57:12.539Z,99523.49
2023-09-02T09:59:50.038Z,99524.70
2023-09-02T10:02:20.689Z,99526.04
2023-09-02T10:04:56.638Z,99529.68
2023-09-02T10:07:35.008Z,99533.00
2023-09-02T10:10:06.710Z,99536.17
2023-09-02T10:12:38.094Z,99538.27
2023-09-02T10:15:08.594Z,99536.73
2023-09-02T10:17:38.261Z,99536.27
2023-09-02T10:20:07.337Z,99534.59
2023-09-02T10:22:44.796Z,99532.45
2023-09-02T10:25:25.441Z,99531.04
2023-09-02T10:28:05.366Z,99530.69
2023-09-02T10:30:49.398Z,99529.35
2023-09-02T10:33:23.505Z,99533.13
2023-09-02T10:36:01.811Z,99539.56
2023-09-02T10:38:34.183Z,99540.09
2023-09-02T10:41:12.977Z,99547.81
2023-09-02T10:43:42.518Z,99547.81
2023-09-02T10:46:11.866Z,99552.63
2023-09-02T10:48:46.177Z,99557.59
2023-09-02T10:51:15.883Z,99558.87
2023-09-02T10:53:51.796Z,99552.84
2023-09-02T10:56:40.248Z,99556.92
2023-09-02T10:59:09.044Z,99558.27
2023-09-02T11:01:45.781Z,99566.45
2023-09-02T11:04:14.503Z,99564.33
2023-09-02T11:07:31.088Z,99570.04
2023-09-02T11:09:59.856Z,99565.38
2023-09-02T11:12:29.129Z,99568.23
2023-09-02T11:15:09.494Z,99569.36
2023-09-02T11:17:41.848Z,99574.41
2023-09-02T11:20:15.183Z,99582.31
2023-09-02T11:23:11.718Z,99582.20
2023-09-02T11:25:43.853Z,99578.48
2023-09-02T11:28:20.791Z,99584.19
2023-09-02T11:31:11.304Z,99574.95
2023-09-02T11:33:41.973Z,99575.38
2023-09-02T11:36:16.765Z,99575.44
2023-09-02T11:38:45.724Z,99575.91
2023-09-02T11:41:26.576Z,99578.35
2023-09-02T11:43:55.424Z,99577.15
2023-09-02T11:46:23.631Z,99573.37
2023-09-02T11:48:51.802Z,99570.52
2023-09-02T11:51:21.378Z,99571.42
2023-09-02T11:53:50.527Z,99570.47
2023-09-02T11:56:18.725Z,99568.71
2023-09-02T11:58:46.840Z,99572.34
2023-09-02T12:01:15.256Z,99570.73
2023-09-02T12:03:43.912Z,99576.98
2023-09-02T12:06:12.575Z,99577.04
2023-09-02T12:08:40.682Z,99568.82
2023-09-02T12:11:08.718Z,99570.70
2023-09-02T12:13:38.580Z,99571.35
2023-09-02T12:16:06.964Z,99570.48
2023-09-02T12:18:35.194Z,99573.06
2023-09-02T12:21:03.417Z,99572.77
2023-09-02T12:23:31.505Z,99574.09
2023-09-02T12:26:08.204Z,99573.80
2023-09-02T12:28:36.846Z,99574.27
2023-09-02T12:31:05.875Z,99573.88
2023-09-02T12:33:37.432Z,99573.39
2023-09-02T12:36:07.422Z,99575.01
2023-09-02T12:38:49.431Z,99569.56
2023-09-02T12:41:17.439Z,99569.45
2023-09-02T12:43:45.492Z,99572.44
2023-09-02T12:46:19.530Z,99578.71
2023-09-02T12:48:48.087Z,99577.02
2023-09-02T12:51:28.775Z,99576.69
2023-09-02T12:53:58.439Z,99576.65
2023-09-02T12:56:26.430Z,99575.71
2023-09-02T12:58:54.435Z,99571.30
2023-09-02T13:01:22.472Z,99573.48
2023-09-02T13:03:50.568Z,99577.11
2023-09-02T13:06:18.702Z,99580.85
2023-09-02T13:08:48.197Z,99581.29
2023-09-02T13:11:16.851Z,99585.38
2023-09-02T13:13:44.950Z,99582.52
2023-09-02T13:16:12.976Z,99585.82
2023-09-02T13:18:43.633Z,99581.81
2023-09-02T13:21:12.811Z,99581.70
2023-09-02T13:23:41.424Z,99584.34
2023-09-02T13:26:14.947Z,99588.89
2023-09-02T13:28:43.306Z,99589.31
2023-09-02T13:31:13.041Z,99589.08
2023-09-02T13:33:45.283Z,99585.77
2023-09-02T13:36:14.117Z,99584.83
2023-09-02T13:38:42.198Z,99585.80
2023-09-02T13:41:13.549Z,99584.70
2023-09-02T13:43:41.804Z,99586.58
2023-09-02T13:46:11.379Z,99578.20
2023-09-02T13:48:39.745Z,99578.41
2023-09-02T13:51:09.193Z,99575.91
2023-09-02T13:53:38.369Z,99570.27
2023-09-02T13:56:06.736Z,99571.72
2023-09-02T13:58:36.616Z,99572.52
2023-09-02T14:01:05.196Z,99572.26
2023-09-02T14:03:33.855Z,99571.80
2023-09-02T14:06:04.677Z,99574.66
2023-09-02T14:08:38.453Z,99571.80
2023-09-02T14:11:08.134Z,99573.91
2023-09-02T14:13:38.952Z,99570.25
2023-09-02T14:16:07.987Z,99572.23
2023-09-02T14:18:36.792Z,99571.25
2023-09-02T14:21:04.843Z,99568.61
2023-09-02T14:23:34.127Z,99565.88
2023-09-02T14:26:02.952Z,99572.88
2023-09-02T14:28:32.364Z,99571.73
2023-09-02T14:31:01.485Z,99570.92
2023-09-02T14:33:29.608Z,99564.74
2023-09-02T14:35:57.795Z,99570.52
2023-09-02T14:38:25.786Z,99568.22
2023-09-02T14:40:53.835Z,99567.75
2023-09-02T14:43:23.076Z,99564.39
2023-09-02T14:45:51.242Z,99566.95
2023-09-02T14:48:25.432Z,99570.20
2023-09-02T14:50:53.574Z,99562.77
2023-09-02T14:53:22.742Z,99558.33
2023-09-02T14:55:52.494Z,99560.10
2023-09-02T14:58:20.649Z,99564.70
2023-09-02T15:00:52.034Z,99570.13
2023-09-02T15:03:31.041Z,99566.71
2023-09-02T15:05:59.592Z,99566.26
2023-09-02T15:08:28.600Z,99570.80
2023-09-02T15:11:01.417Z,99572.08
2023-09-02T15:13:31.456Z,99572.70
2023-09-02T15:16:01.058Z,99577.66
2023-09-02T15:18:31.135Z,99582.19
2023-09-02T15:21:03.339Z,99585.06
2023-09-02T15:23:33.156Z,99581.09
2023-09-02T15:26:02.087Z,99577.23
2023-09-02T15:28:30.449Z,99580.23
2023-09-02T15:31:03.049Z,99585.41
2023-09-02T15:33:32.676Z,99587.03
2023-09-02T15:36:04.019Z,99585.81
2023-09-02T15:38:32.050Z,99593.19
2023-09-02T15:41:03.124Z,99596.85
2023-09-02T15:43:36.987Z,99596.27
2023-09-02T15:46:07.642Z,99598.27
2023-09-02T15:48:35.826Z,99595.17
2023-09-02T15:51:05.076Z,99594.85
2023-09-02T15:53:33.878Z,99593.65
2023-09-02T15:56:01.935Z,99594.98
2023-09-02T15:58:29.994Z,99597.84
2023-09-02T16:00:58.045Z,99597.96
2023-09-02T16:03:26.488Z,99598.26
2023-09-02T16:05:54.871Z,99594.99
2023-09-02T16:08:22.859Z,99598.97
2023-09-02T16:10:51.641Z,99596.77
2023-09-02T16:13:24.113Z,99603.08
2023-09-02T16:15:52.153Z,99601.46
2023-09-02T16:18:20.179Z,99599.33
2023-09-02T16:20:48.664Z,99607.27
2023-09-02T16:23:16.646Z,99605.17
2023-09-02T16:25:44.752Z,99605.58
2023-09-02T16:28:13.647Z,99607.77
2023-09-02T16:30:41.687Z,99612.51
2023-09-02T16:33:09.893Z,99614.48
2023-09-02T16:35:38.098Z,99618.49
2023-09-02T16:38:06.013Z,99619.38
2023-09-02T16:40:34.069Z,99621.20
2023-09-02T16:43:02.343Z,99622.74
2023-09-02T16:45:30.635Z,99627.49
2023-09-02T16:48:07.337Z,99629.90
2023-09-02T16:50:38.035Z,99628.98
2023-09-02T16:53:06.076Z,99628.50
2023-09-02T16:55:34.360Z,99630.46
2023-09-02T16:58:02.424Z,99632.48
2023-09-02T17:00:35.480Z,99633.50
2023-09-02T17:03:07.956Z,99636.96
2023-09-02T17:05:36.485Z,99637.40
2023-09-02T17:08:08.868Z,99639.56
2023-09-02T17:10:36.852Z,99632.67
2023-09-02T17:13:07.933Z,99628.20
2023-09-02T17:15:38.439Z,99627.89
2023-09-02T17:18:09.619Z,99628.08
2023-09-02T17:20:40.141Z,99632.29
2023-09-02T17:23:10.263Z,99633.91
2023-09-02T17:25:41.217Z,99629.55
2023-09-02T17:28:15.045Z,99629.74
2023-09-02T17:30:43.485Z,99629.64
2023-09-02T17:33:11.650Z,99633.23
2023-09-02T17:35:39.623Z,99636.30
2023-09-02T17:38:07.668Z,99640.47
2023-09-02T17:40:35.631Z,99641.33
2023-09-02T17:43:03.741Z,99642.27
2023-09-02T17:45:32.635Z,99639.88
2023-09-02T17:48:00.651Z,99638.38
2023-09-02T17:50:28.719Z,99637.20
2023-09-02T17:52:56.661Z,99635.67
2023-09-02T17:55:24.644Z,99641.99
2023-09-02T17:57:52.784Z,99642.10
2023-09-02T18:00:20.929Z,99646.05
2023-09-02T18:02:49.012Z,99648.52
2023-09-02T18:05:17.156Z,99656.69
2023-09-02T18:07:45.145Z,99659.64
2023-09-02T18:10:14.618Z,99661.20
2023-09-02T18:12:42.553Z,99664.14
2023-09-02T18:15:11.269Z,99660.33
2023-09-02T18:17:39.360Z,99662.18
2023-09-02T18:20:08.267Z,99667.17
2023-09-02T18:22:36.376Z,99673.63
2023-09-02T18:25:04.973Z,99675.26
2023-09-02T18:27:32.892Z,99675.47
2023-09-02T18:30:00.860Z,99685.55
2023-09-02T18:32:30.470Z,99682.93
2023-09-02T18:34:59.046Z,99682.52
2023-09-02T18:37:26.962Z,99679.75
2023-09-02T18:39:54.966Z,99680.45
2023-09-02T18:42:23.004Z,99680.57
2023-09-02T18:44:51.801Z,99680.58
2023-09-02T18:47:20.009Z,99686.93
2023-09-02T18:49:48.013Z,99689.73
2023-09-02T18:52:16.624Z,99696.23
2023-09-02T18:54:44.677Z,99696.63
2023-09-02T18:57:13.028Z,99696.39
2023-09-02T18:59:41.017Z,99697.15
2023-09-02T19:02:08.994Z,99704.23
2023-09-02T19:04:37.084Z,99702.98
2023-09-02T19:07:05.437Z,99705.95
2023-09-02T19:09:35.072Z,99710.33
2023-09-02T19:12:03.012Z,99713.27
2023-09-02T19:14:31.609Z,99711.71
2023-09-02T19:16:59.701Z,99711.33
2023-09-02T19:19:27.638Z,99709.55
2023-09-02T19:21:55.572Z,99712.14
2023-09-02T19:24:23.715Z,99713.88
2023-09-02T19:26:51.745Z,99721.87
2023-09-02T19:29:19.694Z,99723.67
2023-09-02T19:31:47.785Z,99725.30
2023-09-02T19:34:18.775Z,99727.38
2023-09-02T19:36:49.158Z,99730.45
2023-09-02T19:39:18.653Z,99733.80
2023-09-02T19:41:48.160Z,99733.48
2023-09-02T19:44:16.519Z,99735.88
2023-09-02T19:46:47.557Z,99741.98
2023-09-02T19:49:16.139Z,99742.05
2023-09-02T19:51:44.906Z,99745.54
2023-09-02T19:54:13.327Z,99747.63
2023-09-02T19:56:42.178Z,99746.42
2023-09-02T19:59:11.503Z,99749.65
2023-09-02T20:01:39.956Z,99753.56
2023-09-02T20:04:07.940Z,99753.25
2023-09-02T20:06:35.948Z,99755.25
2023-09-02T20:09:04.081Z,99754.02
2023-09-02T20:11:32.424Z,99754.56
2023-09-02T20:14:04.458Z,99756.98
2023-09-02T20:16:32.723Z,99757.38
2023-09-02T20:19:00.788Z,99761.58
2023-09-02T20:21:29.636Z,99760.61
2023-09-02T20:23:57.709Z,99758.70
2023-09-02T20:26:26.209Z,99760.91
2023-09-02T20:28:54.198Z,99762.30
2023-09-02T20:31:22.862Z,99759.73
2023-09-02T20:33:52.750Z,99761.90
2023-09-02T20:36:21.568Z,99760.25
2023-09-02T20:38:50.623Z,99761.44
2023-09-02T20:41:21.390Z,99762.85
2023-09-02T20:43:49.435Z,99759.14
2023-09-02T20:46:17.518Z,99760.01
2023-09-02T20:48:45.509Z,99755.75
2023-09-02T20:51:13.640Z,99754.00
2023-09-02T20:53:42.208Z,99755.48
2023-09-02T20:56:12.251Z,99757.73
2023-09-02T20:58:40.723Z,99760.20
2023-09-02T21:01:10.150Z,99761.54
2023-09-02T21:03:38.722Z,99760.42
2023-09-02T21:06:11.408Z,99754.54
2023-09-02T21:08:39.559Z,99753.50
2023-09-02T21:11:15.250Z,99758.83
2023-09-02T21:13:47.700Z,99756.86
2023-09-02T21:16:21.470Z,99758.88
2023-09-02T21:18:50.130Z,99762.56
2023-09-02T21:21:23.483Z,99765.82
2023-09-02T21:23:52.023Z,99760.86
2023-09-02T21:26:20.981Z,99759.23
2023-09-02T21:28:51.661Z,99754.73
2023-09-02T21:31:20.299Z,99754.64
2023-09-02T21:33:51.043Z,99756.42
2023-09-02T21:36:19.339Z,99757.66
2023-09-02T21:38:49.741Z,99762.59
2023-09-02T21:41:18.046Z,99764.26
2023-09-02T21:43:46.053Z,99766.09
2023-09-02T21:46:15.161Z,99765.61
2023-09-02T21:48:43.486Z,99767.23
2023-09-02T21:51:12.327Z,99765.17
2023-09-02T21:53:43.922Z,99765.55
2023-09-02T21:56:12.339Z,99759.86
2023-09-02T21:58:40.803Z,99755.98
2023-09-02T22:01:10.811Z,99755.63
2023-09-02T22:03:39.354Z,99757.34
2023-09-02T22:06:10.172Z,99762.46
2023-09-02T22:08:40.100Z,99762.17
2023-09-02T22:11:08.136Z,99757.08
2023-09-02T22:13:36.891Z,99753.83
2023-09-02T22:16:05.149Z,99754.16
2023-09-02T22:18:33.901Z,99753.95
2023-09-02T22:21:02.317Z,99751.93
2023-09-02T22:23:32.257Z,99754.00
2023-09-02T22:26:03.191Z,99755.04
2023-09-02T22:28:32.882Z,99756.49
2023-09-02T22:31:02.110Z,99756.39
2023-09-02T22:33:31.873Z,99756.96
2023-09-02T22:36:00.684Z,99752.13
2023-09-02T22:38:53.594Z,99753.02
2023-09-02T22:41:20.052Z,99752.40
2023-09-02T22:43:48.019Z,99755.58
2023-09-02T22:46:16.594Z,99757.49
2023-09-02T22:48:44.691Z,99761.88
2023-09-02T22:51:12.730Z,99761.23
2023-09-02T22:53:41.412Z,99759.58
2023-09-02T22:56:11.343Z,99766.30
2023-09-02T22:58:39.504Z,99763.27
2023-09-02T23:01:10.854Z,99765.13
2023-09-02T23:03:38.994Z,99765.25
2023-09-02T23:06:11.186Z,99762.33
2023-09-02T23:08:39.714Z,99766.27
2023-09-02T23:11:08.060Z,99765.64
2023-09-02T23:13:36.175Z,99763.16
2023-09-02T23:16:05.187Z,99764.09
2023-09-02T23:18:35.007Z,99766.66
2023-09-02T23:21:14.166Z,99769.36
2023-09-02T23:23:42.430Z,99773.54
2023-09-02T23:26:11.007Z,99775.92
2023-09-02T23:28:40.287Z,99774.80
2023-09-02T23:31:08.776Z,99775.47
2023-09-02T23:33:38.769Z,99772.70
2023-09-02T23:36:07.643Z,99773.48
2023-09-02T23:38:35.730Z,99772.28
2023-09-02T23:41:03.779Z,99771.05
2023-09-02T23:43:31.920Z,99768.94
2023-09-02T23:46:00.892Z,99765.05
2023-09-02T23:48:29.469Z,99767.88
2023-09-02T23:50:59.167Z,99769.61
2023-09-02T23:53:27.966Z,99770.27
2023-09-02T23:55:57.207Z,99769.03
2023-09-02T23:58:25.147Z,99773.13
